sensor_id;sensor_type;location;lat;lon;timestamp;pressure;altitude;pressure_sealevel;temperature;humidity
81835;BME280;71272;52.166;4.498;2023-08-31T00:01:09;100877.00;;;13.18;93.05
81835;BME280;71272;52.166;4.498;2023-08-31T00:03:37;100878.59;;;13.19;93.10
81835;BME280;71272;52.166;4.498;2023-08-31T00:06:09;100853.00;;;13.06;93.94
81835;BME280;71272;52.166;4.498;2023-08-31T00:08:35;100850.56;;;13.08;94.35
81835;BME280;71272;52.166;4.498;2023-08-31T00:11:01;100875.34;;;13.20;94.38
81835;BME280;71272;52.166;4.498;2023-08-31T00:13:27;100854.22;;;13.05;95.20
81835;BME280;71272;52.166;4.498;2023-08-31T00:15:54;100857.03;;;13.05;95.76
81835;BME280;71272;52.166;4.498;2023-08-31T00:18:22;100853.44;;;13.01;95.95
81835;BME280;71272;52.166;4.498;2023-08-31T00:20:47;100828.31;;;12.83;95.40
81835;BME280;71272;52.166;4.498;2023-08-31T00:23:13;100830.69;;;12.84;95.10
81835;BME280;71272;52.166;4.498;2023-08-31T00:25:38;100843.19;;;12.83;94.87
81835;BME280;71272;52.166;4.498;2023-08-31T00:28:04;100868.91;;;12.85;94.60
81835;BME280;71272;52.166;4.498;2023-08-31T00:30:33;100841.28;;;12.73;94.64
81835;BME280;71272;52.166;4.498;2023-08-31T00:32:58;100826.47;;;12.69;93.18
81835;BME280;71272;52.166;4.498;2023-08-31T00:35:35;100837.09;;;12.88;92.17
81835;BME280;71272;52.166;4.498;2023-08-31T00:38:08;100845.22;;;12.83;92.12
81835;BME280;71272;52.166;4.498;2023-08-31T00:41:02;100847.69;;;12.77;92.22
81835;BME280;71272;52.166;4.498;2023-08-31T00:46:09;100846.53;;;12.71;91.15
81835;BME280;71272;52.166;4.498;2023-08-31T00:48:40;100847.41;;;12.64;91.70
81835;BME280;71272;52.166;4.498;2023-08-31T00:51:07;100825.84;;;12.51;92.03
81835;BME280;71272;52.166;4.498;2023-08-31T00:53:40;100843.41;;;12.62;91.19
81835;BME280;71272;52.166;4.498;2023-08-31T00:56:07;100825.38;;;12.56;90.68
81835;BME280;71272;52.166;4.498;2023-08-31T00:58:42;100848.59;;;12.67;90.64
81835;BME280;71272;52.166;4.498;2023-08-31T01:01:30;100848.53;;;12.71;90.28
81835;BME280;71272;52.166;4.498;2023-08-31T01:04:32;100847.63;;;12.81;90.13
81835;BME280;71272;52.166;4.498;2023-08-31T01:07:21;100825.22;;;12.70;90.21
81835;BME280;71272;52.166;4.498;2023-08-31T01:15:30;100837.81;;;12.96;91.61
81835;BME280;71272;52.166;4.498;2023-08-31T01:18:27;100862.16;;;13.14;91.47
81835;BME280;71272;52.166;4.498;2023-08-31T01:21:30;100856.53;;;13.14;91.09
81835;BME280;71272;52.166;4.498;2023-08-31T01:24:02;100816.81;;;13.04;90.88
81835;BME280;71272;52.166;4.498;2023-08-31T01:26:29;100827.19;;;13.11;90.09
81835;BME280;71272;52.166;4.498;2023-08-31T01:28:55;100854.00;;;13.26;90.40
81835;BME280;71272;52.166;4.498;2023-08-31T01:31:21;100852.81;;;13.20;88.70
81835;BME280;71272;52.166;4.498;2023-08-31T01:33:47;100861.81;;;13.08;88.02
81835;BME280;71272;52.166;4.498;2023-08-31T01:36:32;100829.44;;;12.89;87.48
81835;BME280;71272;52.166;4.498;2023-08-31T01:39:11;100850.72;;;12.94;88.73
81835;BME280;71272;52.166;4.498;2023-08-31T01:41:40;100843.75;;;12.68;88.53
81835;BME280;71272;52.166;4.498;2023-08-31T01:44:15;100832.59;;;12.60;88.76
81835;BME280;71272;52.166;4.498;2023-08-31T01:46:45;100823.75;;;12.58;88.56
81835;BME280;71272;52.166;4.498;2023-08-31T01:49:11;100839.78;;;12.61;89.01
81835;BME280;71272;52.166;4.498;2023-08-31T01:51:40;100848.53;;;12.71;89.30
81835;BME280;71272;52.166;4.498;2023-08-31T01:54:06;100830.94;;;12.63;89.18
81835;BME280;71272;52.166;4.498;2023-08-31T01:56:31;100837.28;;;12.71;89.91
81835;BME280;71272;52.166;4.498;2023-08-31T01:58:59;100850.91;;;12.76;90.52
81835;BME280;71272;52.166;4.498;2023-08-31T02:01:25;100835.34;;;12.64;90.13
81835;BME280;71272;52.166;4.498;2023-08-31T02:03:50;100859.78;;;12.74;91.23
81835;BME280;71272;52.166;4.498;2023-08-31T02:06:16;100833.00;;;12.59;91.50
81835;BME280;71272;52.166;4.498;2023-08-31T02:08:42;100852.94;;;12.75;92.02
81835;BME280;71272;52.166;4.498;2023-08-31T02:11:09;100825.69;;;12.65;91.22
81835;BME280;71272;52.166;4.498;2023-08-31T07:38:39;101034.41;;;21.44;63.90
81835;BME280;71272;52.166;4.498;2023-08-31T07:41:05;101053.44;;;22.30;60.26
81835;BME280;71272;52.166;4.498;2023-08-31T07:43:36;101024.25;;;23.01;55.58
81835;BME280;71272;52.166;4.498;2023-08-31T07:46:26;101058.03;;;24.14;53.79
81835;BME280;71272;52.166;4.498;2023-08-31T07:48:58;101052.53;;;24.40;51.07
81835;BME280;71272;52.166;4.498;2023-08-31T07:51:26;101063.22;;;23.47;54.43
81835;BME280;71272;52.166;4.498;2023-08-31T07:53:59;101055.53;;;23.29;54.58
81835;BME280;71272;52.166;4.498;2023-08-31T07:56:25;101031.56;;;23.26;53.24
81835;BME280;71272;52.166;4.498;2023-08-31T07:58:51;101061.66;;;23.22;53.55
81835;BME280;71272;52.166;4.498;2023-08-31T08:01:17;101065.84;;;23.12;53.56
81835;BME280;71272;52.166;4.498;2023-08-31T08:03:45;101071.06;;;24.00;51.57
81835;BME280;71272;52.166;4.498;2023-08-31T08:06:15;101064.25;;;23.83;51.26
81835;BME280;71272;52.166;4.498;2023-08-31T08:08:43;101084.38;;;22.83;52.56
81835;BME280;71272;52.166;4.498;2023-08-31T08:11:09;101072.16;;;23.64;51.45
81835;BME280;71272;52.166;4.498;2023-08-31T08:13:36;101054.00;;;23.19;51.51
81835;BME280;71272;52.166;4.498;2023-08-31T08:16:02;101082.63;;;23.19;51.24
81835;BME280;71272;52.166;4.498;2023-08-31T08:24:52;101073.25;;;23.90;47.84
81835;BME280;71272;52.166;4.498;2023-08-31T08:27:17;101076.84;;;24.30;48.45
81835;BME280;71272;52.166;4.498;2023-08-31T08:29:47;101085.41;;;24.00;50.77
81835;BME280;71272;52.166;4.498;2023-08-31T08:32:17;101092.56;;;24.79;46.53
81835;BME280;71272;52.166;4.498;2023-08-31T08:34:43;101078.06;;;24.53;45.59
81835;BME280;71272;52.166;4.498;2023-08-31T08:37:08;101087.13;;;24.36;46.25
81835;BME280;71272;52.166;4.498;2023-08-31T08:39:34;101102.22;;;25.87;43.48
81835;BME280;71272;52.166;4.498;2023-08-31T08:42:04;101088.81;;;26.05;44.16
81835;BME280;71272;52.166;4.498;2023-08-31T08:44:43;101099.56;;;25.84;43.68
81835;BME280;71272;52.166;4.498;2023-08-31T08:47:14;101110.78;;;26.54;42.03
81835;BME280;71272;52.166;4.498;2023-08-31T08:49:43;101093.66;;;26.45;40.98
81835;BME280;71272;52.166;4.498;2023-08-31T08:52:13;101095.44;;;25.50;42.31
81835;BME280;71272;52.166;4.498;2023-08-31T08:54:57;101095.13;;;24.92;42.66
81835;BME280;71272;52.166;4.498;2023-08-31T08:57:26;101115.63;;;24.70;44.12
81835;BME280;71272;52.166;4.498;2023-08-31T08:59:58;101116.72;;;23.32;46.96
81835;BME280;71272;52.166;4.498;2023-08-31T09:02:32;101096.06;;;22.52;49.12
81835;BME280;71272;52.166;4.498;2023-08-31T09:05:01;101103.84;;;23.36;48.00
81835;BME280;71272;52.166;4.498;2023-08-31T09:08:04;101133.41;;;24.89;44.51
81835;BME280;71272;52.166;4.498;2023-08-31T09:10:39;101125.94;;;25.27;44.65
81835;BME280;71272;52.166;4.498;2023-08-31T09:13:14;101096.25;;;24.65;42.92
81835;BME280;71272;52.166;4.498;2023-08-31T09:15:47;101124.56;;;23.79;42.07
81835;BME280;71272;52.166;4.498;2023-08-31T09:18:26;101107.81;;;23.06;44.75
81835;BME280;71272;52.166;4.498;2023-08-31T09:20:54;101116.78;;;23.95;44.49
81835;BME280;71272;52.166;4.498;2023-08-31T09:23:22;101133.75;;;25.11;42.77
81835;BME280;71272;52.166;4.498;2023-08-31T09:25:48;101129.06;;;24.78;41.65
81835;BME280;71272;52.166;4.498;2023-08-31T09:28:21;101135.34;;;24.97;42.02
81835;BME280;71272;52.166;4.498;2023-08-31T09:31:04;101131.34;;;24.59;42.34
81835;BME280;71272;52.166;4.498;2023-08-31T09:33:30;101139.53;;;24.81;43.91
81835;BME280;71272;52.166;4.498;2023-08-31T09:35:57;101134.25;;;25.45;41.60
81835;BME280;71272;52.166;4.498;2023-08-31T09:38:25;101146.78;;;25.62;41.86
81835;BME280;71272;52.166;4.498;2023-08-31T09:40:50;101122.06;;;25.50;41.15
81835;BME280;71272;52.166;4.498;2023-08-31T09:43:25;101118.72;;;24.27;42.37
81835;BME280;71272;52.166;4.498;2023-08-31T09:45:52;101135.34;;;24.23;43.56
81835;BME280;71272;52.166;4.498;2023-08-31T09:48:19;101143.63;;;24.36;44.77
81835;BME280;71272;52.166;4.498;2023-08-31T09:50:45;101110.09;;;23.98;43.67
81835;BME280;71272;52.166;4.498;2023-08-31T09:53:16;101145.38;;;24.04;41.60
81835;BME280;71272;52.166;4.498;2023-08-31T09:55:43;101142.13;;;24.11;40.07
81835;BME280;71272;52.166;4.498;2023-08-31T09:58:10;101139.41;;;23.68;43.85
81835;BME280;71272;52.166;4.498;2023-08-31T10:00:37;101123.16;;;23.75;43.00
81835;BME280;71272;52.166;4.498;2023-08-31T10:03:06;101129.41;;;24.42;43.46
81835;BME280;71272;52.166;4.498;2023-08-31T10:05:37;101150.19;;;24.96;41.13
81835;BME280;71272;52.166;4.498;2023-08-31T10:08:06;101120.91;;;25.21;41.78
81835;BME280;71272;52.166;4.498;2023-08-31T10:10:35;101123.81;;;24.62;43.04
81835;BME280;71272;52.166;4.498;2023-08-31T10:13:01;101171.03;;;24.37;41.86
81835;BME280;71272;52.166;4.498;2023-08-31T10:15:32;101156.94;;;24.78;42.03
81835;BME280;71272;52.166;4.498;2023-08-31T10:18:07;101130.69;;;25.50;38.61
81835;BME280;71272;52.166;4.498;2023-08-31T10:23:54;101139.50;;;25.11;39.64
81835;BME280;71272;52.166;4.498;2023-08-31T10:26:28;101159.47;;;25.06;40.31
81835;BME280;71272;52.166;4.498;2023-08-31T10:28:57;101139.13;;;25.18;39.66
81835;BME280;71272;52.166;4.498;2023-08-31T10:31:23;101138.16;;;24.47;39.19
81835;BME280;71272;52.166;4.498;2023-08-31T10:33:59;101157.81;;;24.54;39.62
81835;BME280;71272;52.166;4.498;2023-08-31T10:36:41;101145.53;;;25.13;40.88
81835;BME280;71272;52.166;4.498;2023-08-31T10:39:18;101135.16;;;25.16;39.65
81835;BME280;71272;52.166;4.498;2023-08-31T10:41:54;101162.41;;;25.41;38.19
81835;BME280;71272;52.166;4.498;2023-08-31T10:44:22;101136.50;;;25.35;39.53
81835;BME280;71272;52.166;4.498;2023-08-31T10:46:49;101159.78;;;25.22;39.52
81835;BME280;71272;52.166;4.498;2023-08-31T10:49:16;101159.69;;;25.17;39.59
81835;BME280;71272;52.166;4.498;2023-08-31T10:51:57;101148.69;;;25.30;37.64
81835;BME280;71272;52.166;4.498;2023-08-31T10:59:49;101162.19;;;22.96;42.65
81835;BME280;71272;52.166;4.498;2023-08-31T11:05:06;101135.09;;;23.16;45.02
81835;BME280;71272;52.166;4.498;2023-08-31T11:07:32;101133.88;;;23.89;43.60
81835;BME280;71272;52.166;4.498;2023-08-31T11:12:44;101154.84;;;24.49;41.13
81835;BME280;71272;52.166;4.498;2023-08-31T11:15:17;101156.44;;;24.50;42.11
81835;BME280;71272;52.166;4.498;2023-08-31T11:17:44;101146.59;;;24.27;42.30
81835;BME280;71272;52.166;4.498;2023-08-31T11:20:14;101150.19;;;24.36;41.27
81835;BME280;71272;52.166;4.498;2023-08-31T11:22:41;101155.78;;;24.16;42.95
81835;BME280;71272;52.166;4.498;2023-08-31T11:25:08;101128.47;;;22.12;45.74
81835;BME280;71272;52.166;4.498;2023-08-31T11:27:34;101134.69;;;22.38;46.69
81835;BME280;71272;52.166;4.498;2023-08-31T11:30:00;101173.66;;;22.78;45.94
81835;BME280;71272;52.166;4.498;2023-08-31T11:32:26;101164.78;;;22.76;47.05
81835;BME280;71272;52.166;4.498;2023-08-31T11:34:52;101155.34;;;22.24;44.36
81835;BME280;71272;52.166;4.498;2023-08-31T11:37:22;101168.97;;;22.20;47.56
81835;BME280;71272;52.166;4.498;2023-08-31T11:39:53;101178.63;;;22.59;44.23
81835;BME280;71272;52.166;4.498;2023-08-31T11:42:22;101167.00;;;22.72;45.23
81835;BME280;71272;52.166;4.498;2023-08-31T11:45:07;101140.41;;;22.38;46.59
81835;BME280;71272;52.166;4.498;2023-08-31T11:47:34;101174.25;;;23.00;46.88
81835;BME280;71272;52.166;4.498;2023-08-31T11:50:05;101173.31;;;22.85;46.07
81835;BME280;71272;52.166;4.498;2023-08-31T11:52:32;101139.78;;;22.25;44.45
81835;BME280;71272;52.166;4.498;2023-08-31T11:55:18;101182.91;;;22.64;44.90
81835;BME280;71272;52.166;4.498;2023-08-31T11:57:53;101152.28;;;22.55;45.48
81835;BME280;71272;52.166;4.498;2023-08-31T12:00:22;101153.06;;;22.65;44.91
81835;BME280;71272;52.166;4.498;2023-08-31T12:02:58;101177.19;;;22.54;45.59
81835;BME280;71272;52.166;4.498;2023-08-31T12:05:24;101138.78;;;22.37;45.36
81835;BME280;71272;52.166;4.498;2023-08-31T12:07:50;101177.03;;;22.58;44.76
81835;BME280;71272;52.166;4.498;2023-08-31T12:10:18;101163.59;;;22.22;45.56
81835;BME280;71272;52.166;4.498;2023-08-31T12:12:44;101152.28;;;22.46;43.41
81835;BME280;71272;52.166;4.498;2023-08-31T12:15:15;101148.97;;;22.38;45.88
81835;BME280;71272;52.166;4.498;2023-08-31T12:17:43;101146.88;;;22.48;46.66
81835;BME280;71272;52.166;4.498;2023-08-31T12:20:12;101141.97;;;21.75;46.71
81835;BME280;71272;52.166;4.498;2023-08-31T12:22:40;101146.09;;;22.01;43.62
81835;BME280;71272;52.166;4.498;2023-08-31T12:25:09;101176.56;;;22.59;44.32
81835;BME280;71272;52.166;4.498;2023-08-31T12:27:40;101166.72;;;21.96;46.08
81835;BME280;71272;52.166;4.498;2023-08-31T12:32:40;101137.53;;;22.29;44.97
81835;BME280;71272;52.166;4.498;2023-08-31T12:35:15;101153.91;;;22.37;44.53
81835;BME280;71272;52.166;4.498;2023-08-31T12:37:46;101178.78;;;22.55;43.47
81835;BME280;71272;52.166;4.498;2023-08-31T12:40:15;101179.06;;;22.67;42.59
81835;BME280;71272;52.166;4.498;2023-08-31T12:42:45;101138.44;;;22.53;44.57
81835;BME280;71272;52.166;4.498;2023-08-31T12:45:12;101174.97;;;22.58;44.19
81835;BME280;71272;52.166;4.498;2023-08-31T12:47:41;101137.72;;;22.34;43.19
81835;BME280;71272;52.166;4.498;2023-08-31T12:50:09;101179.44;;;22.23;43.29
81835;BME280;71272;52.166;4.498;2023-08-31T12:52:37;101139.91;;;22.12;43.99
81835;BME280;71272;52.166;4.498;2023-08-31T12:55:26;101147.41;;;22.19;44.05
81835;BME280;71272;52.166;4.498;2023-08-31T12:57:52;101182.63;;;22.43;45.23
81835;BME280;71272;52.166;4.498;2023-08-31T13:00:18;101187.69;;;22.39;45.35
81835;BME280;71272;52.166;4.498;2023-08-31T13:02:44;101179.13;;;22.39;45.64
81835;BME280;71272;52.166;4.498;2023-08-31T13:05:12;101183.22;;;22.10;43.77
81835;BME280;71272;52.166;4.498;2023-08-31T13:07:39;101146.41;;;21.76;44.37
81835;BME280;71272;52.166;4.498;2023-08-31T13:10:08;101176.84;;;21.69;44.83
81835;BME280;71272;52.166;4.498;2023-08-31T13:12:41;101180.16;;;21.59;45.54
81835;BME280;71272;52.166;4.498;2023-08-31T13:15:12;101181.47;;;21.85;45.48
81835;BME280;71272;52.166;4.498;2023-08-31T13:17:41;101158.59;;;21.67;45.08
81835;BME280;71272;52.166;4.498;2023-08-31T13:20:07;101163.16;;;21.55;44.69
81835;BME280;71272;52.166;4.498;2023-08-31T13:22:35;101172.31;;;21.41;45.53
81835;BME280;71272;52.166;4.498;2023-08-31T13:25:21;101189.50;;;21.59;46.21
81835;BME280;71272;52.166;4.498;2023-08-31T13:27:56;101164.28;;;21.58;44.78
81835;BME280;71272;52.166;4.498;2023-08-31T13:30:26;101180.50;;;21.79;45.09
81835;BME280;71272;52.166;4.498;2023-08-31T13:33:00;101171.47;;;21.90;44.60
81835;BME280;71272;52.166;4.498;2023-08-31T13:35:40;101155.78;;;21.85;46.22
81835;BME280;71272;52.166;4.498;2023-08-31T13:38:11;101138.47;;;21.70;45.71
81835;BME280;71272;52.166;4.498;2023-08-31T13:41:00;101133.88;;;21.64;45.60
81835;BME280;71272;52.166;4.498;2023-08-31T13:43:28;101156.16;;;21.38;45.99
81835;BME280;71272;52.166;4.498;2023-08-31T13:46:26;101174.78;;;21.61;45.42
81835;BME280;71272;52.166;4.498;2023-08-31T13:48:57;101152.00;;;21.39;45.47
81835;BME280;71272;52.166;4.498;2023-08-31T13:51:38;101152.75;;;21.30;45.40
81835;BME280;71272;52.166;4.498;2023-08-31T13:57:30;101166.22;;;21.70;45.37
81835;BME280;71272;52.166;4.498;2023-08-31T13:59:56;101169.06;;;21.70;45.09
81835;BME280;71272;52.166;4.498;2023-08-31T14:02:36;101181.56;;;21.54;45.38
81835;BME280;71272;52.166;4.498;2023-08-31T14:05:10;101170.19;;;21.32;45.49
81835;BME280;71272;52.166;4.498;2023-08-31T14:07:42;101169.75;;;21.34;46.00
81835;BME280;71272;52.166;4.498;2023-08-31T14:10:11;101180.25;;;21.46;47.47
81835;BME280;71272;52.166;4.498;2023-08-31T14:12:46;101178.31;;;21.02;45.17
81835;BME280;71272;52.166;4.498;2023-08-31T14:15:34;101142.81;;;20.63;46.65
81835;BME280;71272;52.166;4.498;2023-08-31T14:18:22;101158.09;;;20.56;48.38
81835;BME280;71272;52.166;4.498;2023-08-31T14:21:17;101184.25;;;20.86;46.05
81835;BME280;71272;52.166;4.498;2023-08-31T14:32:20;101167.28;;;20.16;47.94
81835;BME280;71272;52.166;4.498;2023-08-31T14:34:46;101182.28;;;20.30;47.64
81835;BME280;71272;52.166;4.498;2023-08-31T14:37:21;101181.84;;;20.40;47.00
81835;BME280;71272;52.166;4.498;2023-08-31T14:39:46;101167.75;;;20.37;46.93
81835;BME280;71272;52.166;4.498;2023-08-31T14:42:17;101149.00;;;20.27;46.25
81835;BME280;71272;52.166;4.498;2023-08-31T14:44:48;101180.63;;;20.42;47.25
81835;BME280;71272;52.166;4.498;2023-08-31T14:47:16;101156.31;;;20.28;46.98
81835;BME280;71272;52.166;4.498;2023-08-31T14:49:47;101186.91;;;20.36;47.45
81835;BME280;71272;52.166;4.498;2023-08-31T14:52:18;101169.56;;;20.22;47.74
81835;BME280;71272;52.166;4.498;2023-08-31T14:54:51;101184.84;;;20.37;47.33
81835;BME280;71272;52.166;4.498;2023-08-31T15:00:42;101191.47;;;20.34;47.46
81835;BME280;71272;52.166;4.498;2023-08-31T15:03:13;101174.63;;;20.27;47.90
81835;BME280;71272;52.166;4.498;2023-08-31T15:05:40;101171.06;;;20.13;49.05
81835;BME280;71272;52.166;4.498;2023-08-31T15:11:45;101199.41;;;20.17;49.33
81835;BME280;71272;52.166;4.498;2023-08-31T15:14:22;101178.38;;;20.02;49.48
81835;BME280;71272;52.166;4.498;2023-08-31T15:16:48;101167.69;;;20.06;48.86
81835;BME280;71272;52.166;4.498;2023-08-31T15:19:16;101188.03;;;20.17;48.00
81835;BME280;71272;52.166;4.498;2023-08-31T15:21:45;101156.47;;;19.89;47.41
81835;BME280;71272;52.166;4.498;2023-08-31T15:24:10;101185.22;;;20.04;48.00
81835;BME280;71272;52.166;4.498;2023-08-31T15:26:35;101182.88;;;19.90;48.23
81835;BME280;71272;52.166;4.498;2023-08-31T15:29:01;101174.25;;;19.81;49.14
81835;BME280;71272;52.166;4.498;2023-08-31T15:31:26;101173.69;;;19.73;49.56
81835;BME280;71272;52.166;4.498;2023-08-31T15:33:55;101183.09;;;19.83;48.41
81835;BME280;71272;52.166;4.498;2023-08-31T15:39:47;101206.06;;;20.01;48.99
81835;BME280;71272;52.166;4.498;2023-08-31T15:42:31;101187.09;;;19.85;49.42
81835;BME280;71272;52.166;4.498;2023-08-31T15:48:50;101183.94;;;19.70;49.04
81835;BME280;71272;52.166;4.498;2023-08-31T15:51:15;101208.06;;;19.79;48.34
81835;BME280;71272;52.166;4.498;2023-08-31T15:53:41;101181.88;;;19.58;50.38
81835;BME280;71272;52.166;4.498;2023-08-31T15:56:06;101205.00;;;19.73;51.26
81835;BME280;71272;52.166;4.498;2023-08-31T15:58:32;101189.75;;;19.67;47.82
81835;BME280;71272;52.166;4.498;2023-08-31T16:04:19;101183.59;;;19.56;49.47
81835;BME280;71272;52.166;4.498;2023-08-31T16:10:06;101209.31;;;19.52;49.78
81835;BME280;71272;52.166;4.498;2023-08-31T16:12:32;101188.03;;;19.31;50.38
81835;BME280;71272;52.166;4.498;2023-08-31T16:14:58;101180.31;;;19.06;51.36
81835;BME280;71272;52.166;4.498;2023-08-31T16:20:50;101216.81;;;19.07;51.99
81835;BME280;71272;52.166;4.498;2023-08-31T16:23:15;101197.25;;;18.97;52.81
81835;BME280;71272;52.166;4.498;2023-08-31T16:25:41;101181.44;;;18.96;51.74
81835;BME280;71272;52.166;4.498;2023-08-31T16:31:28;101204.63;;;18.94;52.54
81835;BME280;71272;52.166;4.498;2023-08-31T16:37:15;101200.81;;;18.72;51.24
81835;BME280;71272;52.166;4.498;2023-08-31T16:43:03;101218.19;;;18.61;54.62
81835;BME280;71272;52.166;4.498;2023-08-31T16:45:29;101217.13;;;18.55;55.21
81835;BME280;71272;52.166;4.498;2023-08-31T16:47:54;101182.34;;;18.22;56.38
81835;BME280;71272;52.166;4.498;2023-08-31T17:56:01;101205.25;;;16.40;65.48
81835;BME280;71272;52.166;4.498;2023-08-31T17:58:30;101182.75;;;16.09;66.66
81835;BME280;71272;52.166;4.498;2023-08-31T18:01:02;101191.09;;;15.96;66.51
81835;BME280;71272;52.166;4.498;2023-08-31T18:03:28;101204.50;;;15.92;67.04
81835;BME280;71272;52.166;4.498;2023-08-31T18:06:09;101202.16;;;15.87;68.94
81835;BME280;71272;52.166;4.498;2023-08-31T18:08:40;101203.09;;;15.81;69.80
81835;BME280;71272;52.166;4.498;2023-08-31T18:11:12;101202.88;;;15.68;70.46
81835;BME280;71272;52.166;4.498;2023-08-31T18:13:42;101201.34;;;15.63;71.20
81835;BME280;71272;52.166;4.498;2023-08-31T18:16:30;101204.84;;;15.47;70.69
81835;BME280;71272;52.166;4.498;2023-08-31T18:19:00;101182.56;;;15.26;71.10
81835;BME280;71272;52.166;4.498;2023-08-31T18:21:28;101203.88;;;15.30;71.69
81835;BME280;71272;52.166;4.498;2023-08-31T18:23:57;101202.22;;;15.33;72.85
81835;BME280;71272;52.166;4.498;2023-08-31T18:26:25;101199.13;;;15.24;71.88
81835;BME280;71272;52.166;4.498;2023-08-31T18:28:54;101208.13;;;15.15;71.76
81835;BME280;71272;52.166;4.498;2023-08-31T18:31:34;101200.19;;;15.06;72.34
81835;BME280;71272;52.166;4.498;2023-08-31T18:34:24;101196.19;;;15.04;72.47
81835;BME280;71272;52.166;4.498;2023-08-31T18:37:05;101199.41;;;15.06;73.67
81835;BME280;71272;52.166;4.498;2023-08-31T18:39:59;101203.03;;;15.06;74.09
81835;BME280;71272;52.166;4.498;2023-08-31T18:43:13;101203.59;;;14.94;74.19
81835;BME280;71272;52.166;4.498;2023-08-31T18:49:26;101190.06;;;14.82;78.15
81835;BME280;71272;52.166;4.498;2023-08-31T18:56:09;101213.00;;;14.84;77.47
81835;BME280;71272;52.166;4.498;2023-08-31T18:59:07;101226.50;;;14.69;77.26
81835;BME280;71272;52.166;4.498;2023-08-31T19:01:58;101212.97;;;14.53;78.44
81835;BME280;71272;52.166;4.498;2023-08-31T20:08:17;101245.88;;;14.67;81.01
81835;BME280;71272;52.166;4.498;2023-08-31T20:11:12;101226.31;;;14.53;80.41
81835;BME280;71272;52.166;4.498;2023-08-31T20:13:53;101237.75;;;14.73;81.01
81835;BME280;71272;52.166;4.498;2023-08-31T20:16:53;101231.44;;;14.61;81.13
81835;BME280;71272;52.166;4.498;2023-08-31T20:19:27;101232.28;;;14.58;80.46
81835;BME280;71272;52.166;4.498;2023-08-31T20:22:00;101238.47;;;14.80;80.33
81835;BME280;71272;52.166;4.498;2023-08-31T20:24:41;101246.56;;;14.78;79.93
81835;BME280;71272;52.166;4.498;2023-08-31T20:27:30;101228.94;;;14.67;79.88
81835;BME280;71272;52.166;4.498;2023-08-31T20:29:59;101249.81;;;14.77;79.04
81835;BME280;71272;52.166;4.498;2023-08-31T20:32:25;101233.81;;;14.97;78.82
81835;BME280;71272;52.166;4.498;2023-08-31T20:34:51;101238.59;;;15.00;77.69
81835;BME280;71272;52.166;4.498;2023-08-31T20:40:07;101246.09;;;15.14;78.70
81835;BME280;71272;52.166;4.498;2023-08-31T20:42:58;101247.78;;;15.08;78.01
81835;BME280;71272;52.166;4.498;2023-08-31T20:53:00;101275.75;;;15.29;78.65
81835;BME280;71272;52.166;4.498;2023-08-31T20:56:17;101267.13;;;15.40;79.68
81835;BME280;71272;52.166;4.498;2023-08-31T20:58:55;101276.03;;;15.39;79.76
81835;BME280;71272;52.166;4.498;2023-08-31T21:01:27;101265.78;;;15.21;79.59
81835;BME280;71272;52.166;4.498;2023-08-31T21:04:34;101275.28;;;15.04;79.74
81835;BME280;71272;52.166;4.498;2023-08-31T21:07:09;101272.53;;;14.97;79.60
81835;BME280;71272;52.166;4.498;2023-08-31T21:09:45;101273.72;;;14.99;79.52
81835;BME280;71272;52.166;4.498;2023-08-31T21:12:22;101264.38;;;15.06;79.27
81835;BME280;71272;52.166;4.498;2023-08-31T21:14:59;101276.66;;;15.23;79.61
81835;BME280;71272;52.166;4.498;2023-08-31T21:17:44;101252.88;;;15.20;79.77
81835;BME280;71272;52.166;4.498;2023-08-31T21:23:52;101258.47;;;14.93;80.21
81835;BME280;71272;52.166;4.498;2023-08-31T21:26:23;101263.81;;;14.87;80.63
81835;BME280;71272;52.166;4.498;2023-08-31T21:28:58;101278.72;;;14.88;81.19
81835;BME280;71272;52.166;4.498;2023-08-31T21:31:35;101283.91;;;14.93;80.99
81835;BME280;71272;52.166;4.498;2023-08-31T21:34:10;101276.16;;;14.97;80.96
81835;BME280;71272;52.166;4.498;2023-08-31T21:37:05;101270.16;;;14.95;81.53
81835;BME280;71272;52.166;4.498;2023-08-31T21:39:46;101260.91;;;14.91;81.15
81835;BME280;71272;52.166;4.498;2023-08-31T21:42:22;101259.94;;;15.05;81.59
81835;BME280;71272;52.166;4.498;2023-08-31T21:45:08;101277.78;;;14.98;81.06
81835;BME280;71272;52.166;4.498;2023-08-31T21:47:40;101275.69;;;15.06;80.88
81835;BME280;71272;52.166;4.498;2023-08-31T21:50:18;101256.63;;;15.10;81.01
81835;BME280;71272;52.166;4.498;2023-08-31T21:53:01;101261.19;;;15.31;81.23
81835;BME280;71272;52.166;4.498;2023-08-31T21:55:35;101251.69;;;15.18;80.38
81835;BME280;71272;52.166;4.498;2023-08-31T21:58:19;101260.66;;;15.13;80.11
81835;BME280;71272;52.166;4.498;2023-08-31T22:00:51;101274.69;;;15.20;80.19
81835;BME280;71272;52.166;4.498;2023-08-31T22:03:22;101254.13;;;15.16;80.65
81835;BME280;71272;52.166;4.498;2023-08-31T22:05:57;101261.38;;;15.17;80.39
81835;BME280;71272;52.166;4.498;2023-08-31T22:09:20;101254.41;;;14.98;80.12
81835;BME280;71272;52.166;4.498;2023-08-31T22:11:38;101234.84;;;14.80;81.11
81835;BME280;71272;52.166;4.498;2023-08-31T22:17:12;101250.66;;;15.04;81.44
81835;BME280;71272;52.166;4.498;2023-08-31T22:19:52;101244.34;;;14.93;80.59
81835;BME280;71272;52.166;4.498;2023-08-31T22:22:20;101266.28;;;15.13;81.15
81835;BME280;71272;52.166;4.498;2023-08-31T22:25:08;101244.25;;;15.00;80.50
81835;BME280;71272;52.166;4.498;2023-08-31T22:27:42;101248.69;;;15.01;80.93
81835;BME280;71272;52.166;4.498;2023-08-31T22:30:33;101258.56;;;15.17;81.29
81835;BME280;71272;52.166;4.498;2023-08-31T22:33:26;101237.28;;;15.08;81.73
81835;BME280;71272;52.166;4.498;2023-08-31T22:36:09;101247.75;;;15.12;81.89